<?xml version="1.0" encoding="UTF-8" standalone="no" ?>
<gpx xmlns="http://www.topografix.com/GPX/1/1" xmlns:xsi="http://www.w3.org/2001/XMLSchema-instance" xsi:schemaLocation="http://www.topografix.com/GPX/1/1 http://www.topografix.com/GPX/1/1/gpx.xsd" version="1.1" creator="VisuGPX - https://www.visugpx.com">
  <metadata>
    <name>Ligne_Autour_11-22km</name>
    <desc><![CDATA[gnerando idor:6837548_6837567_8321596_12827438_13194341_]]></desc>
  </metadata>
  <trk>
    <name><![CDATA[Ligne_HautesLandes_11.4km-6837548]]></name>
    <extensions>
      <line xmlns="http://www.topografix.com/GPX/gpx_style/0/2">
        <color>000088</color>
        <width>4</width>
      </line>
    </extensions>
    <trkseg>
      <trkpt lat="47.40794" lon="-1.37297">
        <ele>36</ele>
        <time>2024-12-22T14:36:13Z</time>
      </trkpt>
      <trkpt lat="47.40784" lon="-1.37217">
        <ele>37</ele>
        <time>2024-12-22T14:37:26Z</time>
      </trkpt>
      <trkpt lat="47.40885" lon="-1.37168">
        <ele>41</ele>
        <time>2024-12-22T14:39:48Z</time>
      </trkpt>
      <trkpt lat="47.4085" lon="-1.3698">
        <ele>42</ele>
        <time>2024-12-22T14:42:44Z</time>
      </trkpt>
      <trkpt lat="47.40731" lon="-1.36885">
        <ele>38</ele>
        <time>2024-12-22T14:45:45Z</time>
      </trkpt>
      <trkpt lat="47.40783" lon="-1.36828">
        <ele>40</ele>
        <time>2024-12-22T14:47:11Z</time>
      </trkpt>
      <trkpt lat="47.4082" lon="-1.36783">
        <ele>41</ele>
        <time>2024-12-22T14:48:15Z</time>
      </trkpt>
      <trkpt lat="47.4084" lon="-1.36747">
        <ele>41</ele>
        <time>2024-12-22T14:48:57Z</time>
      </trkpt>
      <trkpt lat="47.40867" lon="-1.36689">
        <ele>43</ele>
        <time>2024-12-22T14:50:01Z</time>
      </trkpt>
      <trkpt lat="47.4089" lon="-1.36642">
        <ele>43</ele>
        <time>2024-12-22T14:50:53Z</time>
      </trkpt>
      <trkpt lat="47.40978" lon="-1.36493">
        <ele>44</ele>
        <time>2024-12-22T14:53:52Z</time>
      </trkpt>
      <trkpt lat="47.41055" lon="-1.36354">
        <ele>44</ele>
        <time>2024-12-22T14:56:34Z</time>
      </trkpt>
      <trkpt lat="47.41111" lon="-1.36223">
        <ele>44</ele>
        <time>2024-12-22T14:58:54Z</time>
      </trkpt>
      <trkpt lat="47.4119" lon="-1.36076">
        <ele>41</ele>
        <time>2024-12-22T15:01:44Z</time>
      </trkpt>
      <trkpt lat="47.41253" lon="-1.35946">
        <ele>41</ele>
        <time>2024-12-22T15:04:08Z</time>
      </trkpt>
      <trkpt lat="47.41194" lon="-1.35818">
        <ele>42</ele>
        <time>2024-12-22T15:06:28Z</time>
      </trkpt>
      <trkpt lat="47.41141" lon="-1.35574">
        <ele>41</ele>
        <time>2024-12-22T15:10:19Z</time>
      </trkpt>
      <trkpt lat="47.41132" lon="-1.35427">
        <ele>41</ele>
        <time>2024-12-22T15:12:33Z</time>
      </trkpt>
      <trkpt lat="47.4111" lon="-1.35331">
        <ele>41</ele>
        <time>2024-12-22T15:14:04Z</time>
      </trkpt>
      <trkpt lat="47.41118" lon="-1.35206">
        <ele>40</ele>
        <time>2024-12-22T15:15:57Z</time>
      </trkpt>
      <trkpt lat="47.41118" lon="-1.35195">
        <ele>40</ele>
        <time>2024-12-22T15:16:07Z</time>
      </trkpt>
      <trkpt lat="47.41124" lon="-1.3516">
        <ele>40</ele>
        <time>2024-12-22T15:16:40Z</time>
      </trkpt>
      <trkpt lat="47.41073" lon="-1.35035">
        <ele>40</ele>
        <time>2024-12-22T15:18:52Z</time>
      </trkpt>
      <trkpt lat="47.41003" lon="-1.34908">
        <ele>37</ele>
        <time>2024-12-22T15:21:20Z</time>
      </trkpt>
      <trkpt lat="47.40963" lon="-1.34816">
        <ele>37</ele>
        <time>2024-12-22T15:22:58Z</time>
      </trkpt>
      <trkpt lat="47.40836" lon="-1.34917">
        <ele>31</ele>
        <time>2024-12-22T15:26:11Z</time>
      </trkpt>
      <trkpt lat="47.40722" lon="-1.35021">
        <ele>30</ele>
        <time>2024-12-22T15:29:10Z</time>
      </trkpt>
      <trkpt lat="47.4062" lon="-1.35087">
        <ele>33</ele>
        <time>2024-12-22T15:31:38Z</time>
      </trkpt>
      <trkpt lat="47.40566" lon="-1.34984">
        <ele>34</ele>
        <time>2024-12-22T15:33:36Z</time>
      </trkpt>
      <trkpt lat="47.40416" lon="-1.35091">
        <ele>35</ele>
        <time>2024-12-22T15:37:18Z</time>
      </trkpt>
      <trkpt lat="47.4035" lon="-1.35132">
        <ele>33</ele>
        <time>2024-12-22T15:38:54Z</time>
      </trkpt>
      <trkpt lat="47.40248" lon="-1.35193">
        <ele>34</ele>
        <time>2024-12-22T15:41:21Z</time>
      </trkpt>
      <trkpt lat="47.40224" lon="-1.35014">
        <ele>36</ele>
        <time>2024-12-22T15:44:05Z</time>
      </trkpt>
      <trkpt lat="47.40179" lon="-1.34798">
        <ele>34</ele>
        <time>2024-12-22T15:47:30Z</time>
      </trkpt>
      <trkpt lat="47.40165" lon="-1.34647">
        <ele>33</ele>
        <time>2024-12-22T15:49:47Z</time>
      </trkpt>
      <trkpt lat="47.40164" lon="-1.34571">
        <ele>32</ele>
        <time>2024-12-22T15:50:56Z</time>
      </trkpt>
      <trkpt lat="47.40139" lon="-1.3444">
        <ele>31</ele>
        <time>2024-12-22T15:52:59Z</time>
      </trkpt>
      <trkpt lat="47.40174" lon="-1.34379">
        <ele>29</ele>
        <time>2024-12-22T15:54:11Z</time>
      </trkpt>
      <trkpt lat="47.40216" lon="-1.34364">
        <ele>29</ele>
        <time>2024-12-22T15:55:09Z</time>
      </trkpt>
      <trkpt lat="47.40173" lon="-1.34234">
        <ele>29</ele>
        <time>2024-12-22T15:57:19Z</time>
      </trkpt>
      <trkpt lat="47.40106" lon="-1.34079">
        <ele>36</ele>
        <time>2024-12-22T16:00:06Z</time>
      </trkpt>
      <trkpt lat="47.40085" lon="-1.33981">
        <ele>42</ele>
        <time>2024-12-22T16:01:38Z</time>
      </trkpt>
      <trkpt lat="47.4007" lon="-1.33841">
        <ele>44</ele>
        <time>2024-12-22T16:03:46Z</time>
      </trkpt>
      <trkpt lat="47.40103" lon="-1.33736">
        <ele>44</ele>
        <time>2024-12-22T16:05:31Z</time>
      </trkpt>
      <trkpt lat="47.40167" lon="-1.33622">
        <ele>44</ele>
        <time>2024-12-22T16:07:45Z</time>
      </trkpt>
      <trkpt lat="47.40372" lon="-1.33656">
        <ele>30</ele>
        <time>2024-12-22T16:12:20Z</time>
      </trkpt>
      <trkpt lat="47.40523" lon="-1.33697">
        <ele>25</ele>
        <time>2024-12-22T16:15:45Z</time>
      </trkpt>
      <trkpt lat="47.40609" lon="-1.337">
        <ele>26</ele>
        <time>2024-12-22T16:17:40Z</time>
      </trkpt>
      <trkpt lat="47.40764" lon="-1.33703">
        <ele>33</ele>
        <time>2024-12-22T16:21:07Z</time>
      </trkpt>
      <trkpt lat="47.40739" lon="-1.3341">
        <ele>32</ele>
        <time>2024-12-22T16:25:33Z</time>
      </trkpt>
      <trkpt lat="47.40718" lon="-1.32926">
        <ele>30</ele>
        <time>2024-12-22T16:32:51Z</time>
      </trkpt>
      <trkpt lat="47.40711" lon="-1.32778">
        <ele>29</ele>
        <time>2024-12-22T16:35:05Z</time>
      </trkpt>
      <trkpt lat="47.4071" lon="-1.32628">
        <ele>28</ele>
        <time>2024-12-22T16:37:21Z</time>
      </trkpt>
      <trkpt lat="47.40848" lon="-1.32574">
        <ele>34</ele>
        <time>2024-12-22T16:40:31Z</time>
      </trkpt>
      <trkpt lat="47.41005" lon="-1.32527">
        <ele>36</ele>
        <time>2024-12-22T16:44:05Z</time>
      </trkpt>
      <trkpt lat="47.41003" lon="-1.32567">
        <ele>37</ele>
        <time>2024-12-22T16:44:41Z</time>
      </trkpt>
      <trkpt lat="47.41023" lon="-1.32693">
        <ele>38</ele>
        <time>2024-12-22T16:46:38Z</time>
      </trkpt>
      <trkpt lat="47.41031" lon="-1.32826">
        <ele>38</ele>
        <time>2024-12-22T16:48:39Z</time>
      </trkpt>
      <trkpt lat="47.41014" lon="-1.32939">
        <ele>38</ele>
        <time>2024-12-22T16:50:23Z</time>
      </trkpt>
      <trkpt lat="47.40994" lon="-1.33084">
        <ele>39</ele>
        <time>2024-12-22T16:52:37Z</time>
      </trkpt>
      <trkpt lat="47.4101" lon="-1.33233">
        <ele>38</ele>
        <time>2024-12-22T16:54:53Z</time>
      </trkpt>
      <trkpt lat="47.41038" lon="-1.33423">
        <ele>39</ele>
        <time>2024-12-22T16:57:49Z</time>
      </trkpt>
      <trkpt lat="47.41072" lon="-1.33613">
        <ele>40</ele>
        <time>2024-12-22T17:00:46Z</time>
      </trkpt>
      <trkpt lat="47.41079" lon="-1.33852">
        <ele>41</ele>
        <time>2024-12-22T17:04:22Z</time>
      </trkpt>
      <trkpt lat="47.41185" lon="-1.33875">
        <ele>40</ele>
        <time>2024-12-22T17:06:45Z</time>
      </trkpt>
      <trkpt lat="47.41316" lon="-1.339">
        <ele>36</ele>
        <time>2024-12-22T17:09:42Z</time>
      </trkpt>
      <trkpt lat="47.41435" lon="-1.33955">
        <ele>33</ele>
        <time>2024-12-22T17:12:28Z</time>
      </trkpt>
      <trkpt lat="47.41548" lon="-1.34084">
        <ele>32</ele>
        <time>2024-12-22T17:15:39Z</time>
      </trkpt>
      <trkpt lat="47.41642" lon="-1.34132">
        <ele>32</ele>
        <time>2024-12-22T17:17:51Z</time>
      </trkpt>
      <trkpt lat="47.41698" lon="-1.34173">
        <ele>32</ele>
        <time>2024-12-22T17:19:15Z</time>
      </trkpt>
      <trkpt lat="47.41552" lon="-1.34524">
        <ele>34</ele>
        <time>2024-12-22T17:25:27Z</time>
      </trkpt>
      <trkpt lat="47.41424" lon="-1.3473">
        <ele>35</ele>
        <time>2024-12-22T17:29:39Z</time>
      </trkpt>
      <trkpt lat="47.41318" lon="-1.34803">
        <ele>37</ele>
        <time>2024-12-22T17:32:15Z</time>
      </trkpt>
      <trkpt lat="47.41359" lon="-1.34893">
        <ele>36</ele>
        <time>2024-12-22T17:33:53Z</time>
      </trkpt>
      <trkpt lat="47.4143" lon="-1.34987">
        <ele>35</ele>
        <time>2024-12-22T17:36:00Z</time>
      </trkpt>
      <trkpt lat="47.41487" lon="-1.3509">
        <ele>34</ele>
        <time>2024-12-22T17:38:01Z</time>
      </trkpt>
      <trkpt lat="47.41549" lon="-1.35178">
        <ele>37</ele>
        <time>2024-12-22T17:39:55Z</time>
      </trkpt>
      <trkpt lat="47.41636" lon="-1.3532">
        <ele>39</ele>
        <time>2024-12-22T17:42:48Z</time>
      </trkpt>
      <trkpt lat="47.41526" lon="-1.35449">
        <ele>39</ele>
        <time>2024-12-22T17:45:56Z</time>
      </trkpt>
      <trkpt lat="47.41439" lon="-1.356">
        <ele>40</ele>
        <time>2024-12-22T17:48:55Z</time>
      </trkpt>
      <trkpt lat="47.41349" lon="-1.35766">
        <ele>41</ele>
        <time>2024-12-22T17:52:07Z</time>
      </trkpt>
      <trkpt lat="47.41284" lon="-1.35893">
        <ele>41</ele>
        <time>2024-12-22T17:54:31Z</time>
      </trkpt>
      <trkpt lat="47.41253" lon="-1.35943">
        <ele>41</ele>
        <time>2024-12-22T17:55:32Z</time>
      </trkpt>
      <trkpt lat="47.41195" lon="-1.36064">
        <ele>41</ele>
        <time>2024-12-22T17:57:46Z</time>
      </trkpt>
      <trkpt lat="47.41146" lon="-1.36167">
        <ele>43</ele>
        <time>2024-12-22T17:59:39Z</time>
      </trkpt>
      <trkpt lat="47.41084" lon="-1.36272">
        <ele>45</ele>
        <time>2024-12-22T18:01:45Z</time>
      </trkpt>
      <trkpt lat="47.41035" lon="-1.36378">
        <ele>44</ele>
        <time>2024-12-22T18:03:41Z</time>
      </trkpt>
      <trkpt lat="47.40962" lon="-1.36533">
        <ele>44</ele>
        <time>2024-12-22T18:06:32Z</time>
      </trkpt>
      <trkpt lat="47.40876" lon="-1.36671">
        <ele>43</ele>
        <time>2024-12-22T18:09:21Z</time>
      </trkpt>
      <trkpt lat="47.4083" lon="-1.36767">
        <ele>41</ele>
        <time>2024-12-22T18:11:07Z</time>
      </trkpt>
      <trkpt lat="47.40789" lon="-1.36822">
        <ele>40</ele>
        <time>2024-12-22T18:12:21Z</time>
      </trkpt>
      <trkpt lat="47.4073" lon="-1.36882">
        <ele>38</ele>
        <time>2024-12-22T18:13:57Z</time>
      </trkpt>
      <trkpt lat="47.40847" lon="-1.36968">
        <ele>42</ele>
        <time>2024-12-22T18:16:51Z</time>
      </trkpt>
      <trkpt lat="47.40855" lon="-1.3698">
        <ele>42</ele>
        <time>2024-12-22T18:17:07Z</time>
      </trkpt>
      <trkpt lat="47.40883" lon="-1.37165">
        <ele>41</ele>
        <time>2024-12-22T18:19:58Z</time>
      </trkpt>
      <trkpt lat="47.4078" lon="-1.3721">
        <ele>37</ele>
        <time>2024-12-22T18:22:21Z</time>
      </trkpt>
      <trkpt lat="47.40797" lon="-1.37295">
        <ele>36</ele>
        <time>2024-12-22T18:23:41Z</time>
      </trkpt>
      <trkpt lat="47.40766" lon="-1.37301">
        <ele>35</ele>
        <time>2024-12-22T18:24:23Z</time>
      </trkpt>
    </trkseg>
  </trk>
</gpx>